KPRO/PRO METAR and TAF weather

Enter ICAO airport designator
Station Type Date Time Source
KPRO METAR 2018/12/10 09:35 UTC NOAA

KPRO 100935Z AUTO 00000KT 5SM BR CLR M11/M12 A3029 RMK AO2 T11141123


Station Type Date Time Source
KPRO Decoded METAR 2018/12/10 09:35 UTC NOAA

Station name not available
Dec 10, 2018 - 04:35 AM EST / 2018.12.10 0935 UTC
Wind: Calm:0
Visibility: 5 mile(s):0
Sky conditions: clear
Weather: mist
Temperature: 11.5 F (-11.4 C)
Dew Point: 9.9 F (-12.3 C)
Relative Humidity: 93%
Pressure (altimeter): 30.29 in. Hg (1025 hPa)
ob: KPRO 100935Z AUTO 00000KT 5SM BR CLR M11/M12 A3029 RMK AO2 T11141123
cycle: 9

Station Type Date Time Source
KPRO TAF UTC NOAA

Error!


Example: see airport list